Time;durP1;ratioP1;P1;durP2;ratioP2;P2;SDS_P1;SDS_P2;PMS_P1;PMS_P2;Temp;Humidity;BMP_temperature;BMP_pressure;BME280_temperature;BME280_humidity;BME280_pressure;Samples;Min_cycle;Max_cycle;Signal;HPM_P1;HPM_P2
2021/12/22 00:01:15;;;;;;;4.30;3.45;;;4.30;99.90;;;;;;5050675;28;20242;-70
2021/12/22 00:03:46;;;;;;;4.97;2.97;;;4.30;99.90;;;;;;5049148;28;20303;-69
2021/12/22 00:06:19;;;;;;;6.70;2.97;;;4.30;99.90;;;;;;5050926;28;20211;-69
2021/12/22 00:08:47;;;;;;;3.00;2.70;;;4.30;99.90;;;;;;5046148;28;20221;-70
2021/12/22 00:11:17;;;;;;;3.28;2.75;;;4.30;99.90;;;;;;5044528;28;20263;-70
2021/12/22 00:13:45;;;;;;;6.63;3.67;;;4.30;99.90;;;;;;5050539;28;20293;-69
2021/12/22 00:16:13;;;;;;;4.03;3.08;;;4.30;99.90;;;;;;5050187;28;20253;-70
2021/12/22 00:18:41;;;;;;;4.50;3.60;;;4.30;99.90;;;;;;5050247;28;20656;-69
2021/12/22 00:21:11;;;;;;;4.97;3.30;;;4.30;99.90;;;;;;5050549;28;20208;-70
2021/12/22 00:23:39;;;;;;;4.57;3.10;;;4.30;99.90;;;;;;5050090;28;20220;-69
2021/12/22 00:26:08;;;;;;;5.05;3.25;;;4.30;99.90;;;;;;5049532;28;20192;-70
2021/12/22 00:28:40;;;;;;;4.05;3.20;;;4.30;99.90;;;;;;5050331;28;20228;-70
2021/12/22 00:31:12;;;;;;;4.25;3.50;;;4.30;99.90;;;;;;5044683;28;20212;-70
2021/12/22 00:33:47;;;;;;;3.60;3.00;;;4.30;99.90;;;;;;5050946;28;20224;-68
2021/12/22 00:36:17;;;;;;;5.38;3.53;;;4.30;99.90;;;;;;5051247;28;20180;-68
2021/12/22 00:38:45;;;;;;;2.88;2.63;;;4.30;99.90;;;;;;5041448;28;20228;-70
2021/12/22 00:41:15;;;;;;;4.95;3.20;;;4.30;99.90;;;;;;5050968;28;20262;-70
2021/12/22 00:43:44;;;;;;;6.18;3.30;;;4.20;99.90;;;;;;5050345;28;20220;-70
2021/12/22 00:46:13;;;;;;;4.30;3.20;;;4.30;99.90;;;;;;5044401;28;20686;-71
2021/12/22 00:48:41;;;;;;;6.47;3.40;;;4.30;99.90;;;;;;5050583;28;20223;-70
2021/12/22 00:51:12;;;;;;;3.80;2.63;;;4.20;99.90;;;;;;5050768;28;20208;-71
2021/12/22 00:53:40;;;;;;;5.72;3.90;;;4.20;99.90;;;;;;5048207;28;20246;-69
2021/12/22 00:56:09;;;;;;;3.80;3.20;;;4.20;99.90;;;;;;5048615;28;20192;-70
2021/12/22 00:58:37;;;;;;;4.23;3.70;;;4.20;99.90;;;;;;5012187;28;1094556;-69
2021/12/22 01:01:06;;;;;;;5.32;3.70;;;4.20;99.90;;;;;;5050778;28;20212;-68
2021/12/22 01:03:35;;;;;;;4.82;3.90;;;4.20;99.90;;;;;;5050830;28;20204;-70
2021/12/22 01:06:03;;;;;;;4.10;3.38;;;4.20;99.90;;;;;;5050606;28;20185;-70
2021/12/22 01:08:32;;;;;;;4.10;3.10;;;4.20;99.90;;;;;;5046207;28;20590;-71
2021/12/22 01:11:00;;;;;;;4.38;3.67;;;4.20;99.90;;;;;;5042423;28;20230;-70
2021/12/22 01:13:29;;;;;;;4.80;3.40;;;4.20;99.90;;;;;;5051343;28;20200;-69
2021/12/22 01:15:57;;;;;;;4.97;3.90;;;4.20;99.90;;;;;;5050268;28;20197;-68
2021/12/22 01:18:31;;;;;;;6.32;3.90;;;4.20;99.90;;;;;;5050476;28;20617;-71
2021/12/22 01:21:08;;;;;;;3.80;2.85;;;4.20;99.90;;;;;;5050645;28;20678;-70
2021/12/22 01:23:47;;;;;;;4.30;3.15;;;4.20;99.90;;;;;;5045336;28;20251;-70
2021/12/22 01:26:15;;;;;;;3.88;3.35;;;4.20;99.90;;;;;;5048610;28;20196;-69
2021/12/22 01:28:43;;;;;;;4.95;3.75;;;4.20;99.90;;;;;;5050654;28;20262;-71
2021/12/22 01:31:15;;;;;;;4.03;3.40;;;4.10;99.90;;;;;;5049842;28;20216;-70
2021/12/22 01:33:46;;;;;;;6.05;3.08;;;4.10;99.90;;;;;;5051436;28;20273;-68
2021/12/22 01:36:15;;;;;;;5.18;3.05;;;4.20;99.90;;;;;;5055078;28;20191;-69
2021/12/22 01:38:43;;;;;;;3.55;2.88;;;4.20;99.90;;;;;;5051392;28;20224;-71
2021/12/22 01:41:11;;;;;;;6.30;3.67;;;4.20;99.90;;;;;;5036907;28;20605;-70
2021/12/22 01:43:39;;;;;;;3.15;2.80;;;4.10;99.90;;;;;;5054073;28;20216;-69
2021/12/22 01:46:31;;;;;;;4.70;3.30;;;4.10;99.90;;;;;;5039296;28;20207;-69
2021/12/22 01:49:10;;;;;;;3.33;3.03;;;4.10;99.90;;;;;;5054002;28;20262;-70
2021/12/22 01:51:45;;;;;;;3.63;2.83;;;4.10;99.90;;;;;;5043244;28;20269;-70
2021/12/22 01:54:28;;;;;;;6.47;3.97;;;4.10;99.90;;;;;;5052895;28;20223;-69
2021/12/22 01:57:01;;;;;;;3.40;3.10;;;4.10;99.90;;;;;;5055062;28;20192;-68
2021/12/22 01:59:29;;;;;;;3.78;3.38;;;4.10;99.90;;;;;;5053606;28;20219;-70
2021/12/22 02:02:01;;;;;;;5.30;3.33;;;4.10;99.90;;;;;;5052935;28;20223;-71
2021/12/22 02:04:30;;;;;;;5.13;3.55;;;4.10;99.90;;;;;;5053849;28;20212;-69
2021/12/22 02:06:59;;;;;;;4.25;3.80;;;4.10;99.90;;;;;;5053300;28;20196;-70
2021/12/22 02:09:44;;;;;;;3.85;3.08;;;4.10;99.90;;;;;;5049471;28;20251;-70
2021/12/22 02:12:13;;;;;;;4.88;3.25;;;4.10;99.90;;;;;;5053898;28;20208;-70
2021/12/22 02:14:43;;;;;;;3.38;3.08;;;4.10;99.90;;;;;;5032422;28;20239;-70
2021/12/22 02:17:12;;;;;;;3.25;2.90;;;4.10;99.90;;;;;;5054572;28;20199;-69
2021/12/22 02:19:43;;;;;;;5.55;3.28;;;4.00;99.90;;;;;;5053042;28;20229;-68
2021/12/22 02:22:14;;;;;;;4.10;3.13;;;4.10;99.90;;;;;;5038940;28;20266;-70
2021/12/22 02:24:47;;;;;;;3.85;3.20;;;4.10;99.90;;;;;;5050405;28;20268;-68
2021/12/22 02:27:24;;;;;;;3.83;2.78;;;4.00;99.90;;;;;;5054302;28;20196;-70
2021/12/22 02:29:58;;;;;;;3.40;2.70;;;4.00;99.90;;;;;;5052606;28;20216;-68
2021/12/22 02:32:54;;;;;;;4.38;3.28;;;4.10;99.90;;;;;;5053854;28;20242;-69
2021/12/22 02:35:37;;;;;;;3.03;2.80;;;4.00;99.90;;;;;;5047532;28;20698;-69
2021/12/22 02:38:07;;;;;;;3.53;2.95;;;4.00;99.90;;;;;;5053757;28;20650;-69
2021/12/22 02:40:35;;;;;;;4.60;3.28;;;4.00;99.90;;;;;;5035452;28;20219;-69
2021/12/22 02:43:05;;;;;;;4.75;3.60;;;4.00;99.90;;;;;;5053827;28;20188;-71
2021/12/22 02:45:34;;;;;;;4.88;3.08;;;4.00;99.90;;;;;;5044602;28;20204;-69
2021/12/22 02:48:03;;;;;;;3.70;3.20;;;4.00;99.90;;;;;;5052715;28;20238;-69
2021/12/22 02:50:36;;;;;;;3.10;2.85;;;4.00;99.90;;;;;;5053055;28;20270;-71
2021/12/22 02:53:08;;;;;;;7.40;3.45;;;4.00;99.90;;;;;;5053407;28;20196;-70
2021/12/22 02:55:49;;;;;;;4.30;3.90;;;4.00;99.90;;;;;;5051122;28;20693;-69
2021/12/22 02:58:30;;;;;;;3.05;2.60;;;4.00;99.90;;;;;;5046298;28;20246;-69
2021/12/22 03:01:12;;;;;;;3.60;3.00;;;4.00;99.90;;;;;;5052439;28;20217;-70
2021/12/22 03:03:56;;;;;;;3.42;3.03;;;4.00;99.90;;;;;;5052885;28;20220;-70
2021/12/22 03:06:33;;;;;;;4.40;3.85;;;4.00;99.90;;;;;;5046883;28;20191;-68
2021/12/22 03:09:01;;;;;;;3.60;3.00;;;4.00;99.90;;;;;;5047300;28;20212;-70
2021/12/22 03:11:33;;;;;;;4.45;2.80;;;3.90;99.90;;;;;;5053239;28;20266;-70
2021/12/22 03:14:01;;;;;;;4.55;3.00;;;3.90;99.90;;;;;;5050526;28;20212;-69
2021/12/22 03:16:29;;;;;;;4.43;3.00;;;3.90;99.90;;;;;;5052181;28;20226;-69
2021/12/22 03:18:58;;;;;;;3.35;3.05;;;3.90;99.90;;;;;;5051853;28;20274;-68
2021/12/22 03:21:27;;;;;;;3.85;3.15;;;3.90;99.90;;;;;;5052891;28;20589;-70
2021/12/22 03:23:56;;;;;;;3.47;2.55;;;3.90;99.90;;;;;;5051795;28;20224;-69
2021/12/22 03:26:25;;;;;;;3.88;2.97;;;3.90;99.90;;;;;;5051970;28;20203;-69
2021/12/22 03:28:53;;;;;;;3.58;3.20;;;3.90;99.90;;;;;;5051450;28;20770;-70
2021/12/22 03:31:22;;;;;;;3.92;2.92;;;3.90;99.90;;;;;;5052700;28;20212;-71
2021/12/22 03:33:51;;;;;;;3.72;2.50;;;3.90;99.90;;;;;;5052143;28;20219;-70
2021/12/22 03:36:19;;;;;;;4.15;3.20;;;3.90;99.90;;;;;;5052493;28;20686;-70
2021/12/22 03:38:48;;;;;;;5.38;3.40;;;3.90;99.90;;;;;;5051611;28;20231;-69
2021/12/22 03:41:16;;;;;;;3.17;2.60;;;3.90;99.90;;;;;;5051627;28;20209;-71
2021/12/22 03:43:45;;;;;;;4.18;3.35;;;3.90;99.90;;;;;;5051382;28;20575;-70
2021/12/22 03:46:13;;;;;;;4.80;2.47;;;3.90;99.90;;;;;;5049487;28;20234;-69
2021/12/22 03:48:42;;;;;;;3.58;2.55;;;3.90;99.90;;;;;;5051768;28;20269;-69
2021/12/22 03:51:10;;;;;;;3.33;2.58;;;3.90;99.90;;;;;;5051203;28;20282;-70
2021/12/22 03:53:38;;;;;;;3.28;2.50;;;3.90;99.90;;;;;;5046326;28;20675;-70
2021/12/22 03:56:08;;;;;;;3.17;2.80;;;3.90;99.90;;;;;;5049864;28;20201;-70
2021/12/22 03:58:36;;;;;;;3.70;2.50;;;3.90;99.90;;;;;;5051817;28;20200;-69
2021/12/22 04:01:05;;;;;;;4.75;3.20;;;3.90;99.90;;;;;;5051396;28;20212;-70
2021/12/22 04:03:35;;;;;;;4.13;3.10;;;3.80;99.90;;;;;;5052435;28;20196;-69
2021/12/22 04:06:04;;;;;;;2.92;2.53;;;3.90;99.90;;;;;;5052013;28;20196;-69
2021/12/22 04:08:32;;;;;;;3.13;2.83;;;3.80;99.90;;;;;;5049819;28;20720;-68
2021/12/22 04:11:00;;;;;;;3.42;3.13;;;3.90;99.90;;;;;;5052188;28;20204;-70
2021/12/22 04:13:30;;;;;;;2.88;2.30;;;3.80;99.90;;;;;;5052309;28;20516;-72
2021/12/22 04:15:58;;;;;;;2.78;2.28;;;3.90;99.90;;;;;;5050916;28;20723;-68
2021/12/22 04:18:26;;;;;;;3.15;2.78;;;3.80;99.90;;;;;;5036832;28;20250;-69
2021/12/22 04:20:56;;;;;;;5.30;2.55;;;3.80;99.90;;;;;;5051764;28;20209;-69
2021/12/22 04:23:25;;;;;;;3.33;2.55;;;3.90;99.90;;;;;;5050736;28;20188;-70
2021/12/22 04:25:53;;;;;;;3.80;3.05;;;3.80;99.90;;;;;;5051906;28;20721;-70
2021/12/22 04:28:21;;;;;;;2.95;2.60;;;3.80;99.90;;;;;;5051854;28;20188;-69
2021/12/22 04:30:50;;;;;;;3.63;2.88;;;3.80;99.90;;;;;;5050496;28;20645;-71
2021/12/22 04:33:20;;;;;;;4.03;2.58;;;3.80;99.90;;;;;;5051106;28;20224;-71
2021/12/22 04:35:48;;;;;;;2.47;2.28;;;3.80;99.90;;;;;;5050942;28;20223;-69
2021/12/22 04:38:17;;;;;;;3.38;2.67;;;3.80;99.90;;;;;;5050991;28;20200;-69
2021/12/22 04:40:45;;;;;;;3.00;2.33;;;3.80;99.90;;;;;;5051020;28;20213;-71
2021/12/22 04:43:13;;;;;;;2.58;2.38;;;3.80;99.90;;;;;;5051513;28;20650;-71
2021/12/22 04:45:42;;;;;;;3.08;2.47;;;3.80;99.90;;;;;;5050674;28;20223;-70
2021/12/22 04:48:11;;;;;;;5.85;2.97;;;3.80;99.90;;;;;;5050549;28;20189;-69
2021/12/22 04:50:39;;;;;;;2.85;2.15;;;3.80;99.90;;;;;;5050538;28;20243;-71
2021/12/22 04:53:11;;;;;;;2.72;2.30;;;3.80;99.90;;;;;;5051324;28;20196;-71
2021/12/22 04:55:40;;;;;;;4.10;3.00;;;3.80;99.90;;;;;;5048716;28;20694;-70
2021/12/22 04:58:09;;;;;;;3.17;2.65;;;3.80;99.90;;;;;;5051330;28;20195;-69
2021/12/22 05:00:38;;;;;;;3.08;2.30;;;3.80;99.90;;;;;;5044556;28;20216;-70
2021/12/22 05:03:07;;;;;;;4.80;2.55;;;3.80;99.90;;;;;;5051345;28;20607;-71
2021/12/22 05:05:37;;;;;;;4.32;3.13;;;3.80;99.90;;;;;;5049450;28;20277;-68
2021/12/22 05:08:05;;;;;;;3.38;2.33;;;3.70;99.90;;;;;;5049982;28;20243;-70
2021/12/22 05:10:33;;;;;;;4.40;2.85;;;3.80;99.90;;;;;;5048700;28;20633;-72
2021/12/22 05:13:01;;;;;;;5.10;3.13;;;3.80;99.90;;;;;;5051074;28;20220;-71
2021/12/22 05:15:37;;;;;;;3.05;2.50;;;3.70;99.90;;;;;;5050203;28;20693;-70
2021/12/22 05:18:21;;;;;;;4.30;2.53;;;3.70;99.90;;;;;;5047597;28;20600;-69
2021/12/22 05:20:52;;;;;;;2.60;2.40;;;3.70;99.90;;;;;;5050945;28;20213;-70
2021/12/22 05:23:20;;;;;;;3.00;2.70;;;3.70;99.90;;;;;;5050918;28;20189;-71
2021/12/22 05:25:48;;;;;;;2.50;2.17;;;3.70;99.90;;;;;;5066139;28;20266;-70
2021/12/22 05:28:16;;;;;;;3.42;2.30;;;3.70;99.90;;;;;;5050858;28;20189;-70
2021/12/22 05:30:47;;;;;;;2.85;2.20;;;3.70;99.90;;;;;;5044737;28;20224;-71
2021/12/22 05:33:15;;;;;;;3.50;2.25;;;3.70;99.90;;;;;;5050251;28;20274;-71
2021/12/22 05:35:43;;;;;;;4.38;2.85;;;3.70;99.90;;;;;;5050298;28;20213;-70
2021/12/22 05:38:13;;;;;;;2.83;2.30;;;3.70;99.90;;;;;;5049864;28;20246;-68
2021/12/22 05:40:41;;;;;;;3.80;2.50;;;3.70;99.90;;;;;;5049255;28;20270;-71
2021/12/22 05:43:09;;;;;;;2.25;2.05;;;3.70;99.90;;;;;;5047761;28;20192;-70
2021/12/22 05:45:37;;;;;;;3.85;3.35;;;3.70;99.90;;;;;;5041910;28;20245;-69
2021/12/22 05:48:06;;;;;;;2.50;2.30;;;3.70;99.90;;;;;;5050245;28;20203;-70
2021/12/22 05:50:34;;;;;;;2.50;2.05;;;3.70;99.90;;;;;;5049881;28;20224;-70
2021/12/22 05:53:02;;;;;;;2.85;2.55;;;3.70;99.90;;;;;;5045950;28;20198;-71
2021/12/22 05:55:32;;;;;;;3.20;2.30;;;3.60;99.90;;;;;;5045783;28;20220;-70
2021/12/22 05:58:00;;;;;;;3.08;2.15;;;3.60;99.90;;;;;;5049433;28;20204;-68
2021/12/22 06:00:28;;;;;;;3.25;2.60;;;3.60;99.90;;;;;;5030775;28;20223;-70
2021/12/22 06:02:57;;;;;;;2.70;2.30;;;3.60;99.90;;;;;;5050555;28;20188;-71
2021/12/22 06:05:25;;;;;;;2.45;2.25;;;3.60;99.90;;;;;;5050119;28;20224;-70
2021/12/22 06:07:53;;;;;;;3.33;2.45;;;3.60;99.90;;;;;;5044004;28;20216;-71
2021/12/22 06:10:21;;;;;;;2.95;2.25;;;3.60;99.90;;;;;;5049958;28;20262;-70
2021/12/22 06:12:51;;;;;;;4.00;2.50;;;3.60;99.90;;;;;;5050975;28;20200;-71
2021/12/22 06:15:19;;;;;;;2.55;2.35;;;3.60;99.90;;;;;;5049411;28;20734;-71
2021/12/22 06:17:53;;;;;;;3.85;2.50;;;3.60;99.90;;;;;;5050733;28;20196;-70
2021/12/22 06:20:21;;;;;;;2.50;2.30;;;3.60;99.90;;;;;;5053221;28;20215;-70
2021/12/22 06:22:49;;;;;;;7.55;3.67;;;3.60;99.90;;;;;;5052867;28;20188;-70
2021/12/22 06:25:18;;;;;;;3.30;2.25;;;3.50;99.90;;;;;;5053363;28;20353;-71
2021/12/22 06:27:46;;;;;;;3.00;2.70;;;3.50;99.90;;;;;;5053631;28;20246;-69
2021/12/22 06:30:16;;;;;;;3.85;3.10;;;3.50;99.90;;;;;;5051783;28;20216;-68
2021/12/22 06:32:44;;;;;;;5.53;3.00;;;3.50;99.90;;;;;;5043551;28;20188;-70
2021/12/22 06:35:12;;;;;;;2.83;2.53;;;3.50;99.90;;;;;;5053664;28;20274;-71
2021/12/22 06:37:43;;;;;;;5.43;2.40;;;3.50;99.90;;;;;;5053880;28;20196;-69
2021/12/22 06:40:12;;;;;;;3.80;2.67;;;3.50;99.90;;;;;;5052979;28;20701;-68
2021/12/22 06:42:41;;;;;;;3.10;2.80;;;3.50;99.90;;;;;;5052483;28;20204;-70
2021/12/22 06:45:10;;;;;;;4.28;3.05;;;3.50;99.90;;;;;;5051792;28;20285;-72
2021/12/22 06:47:40;;;;;;;2.35;2.15;;;3.50;99.90;;;;;;5054227;28;20246;-70
2021/12/22 06:50:10;;;;;;;3.53;2.75;;;3.50;99.90;;;;;;5053489;28;20689;-69
2021/12/22 06:52:38;;;;;;;3.15;2.35;;;3.50;99.90;;;;;;5048696;28;20658;-70
2021/12/22 06:55:07;;;;;;;3.17;2.40;;;3.50;99.90;;;;;;5052772;28;20282;-70
2021/12/22 06:57:35;;;;;;;3.80;2.70;;;3.50;99.90;;;;;;5053999;28;20728;-69
2021/12/22 07:00:06;;;;;;;2.60;2.35;;;3.50;99.90;;;;;;5043831;28;20270;-69
2021/12/22 07:02:37;;;;;;;4.00;2.83;;;3.40;99.90;;;;;;5049417;28;20220;-70
2021/12/22 07:05:19;;;;;;;3.97;2.55;;;3.50;99.90;;;;;;5051373;28;20720;-69
2021/12/22 07:07:47;;;;;;;4.00;3.03;;;3.40;99.90;;;;;;5053797;28;20596;-68
2021/12/22 07:10:16;;;;;;;4.50;2.40;;;3.50;99.90;;;;;;5052313;28;20220;-68
2021/12/22 07:12:46;;;;;;;2.40;2.20;;;3.40;99.90;;;;;;5053974;28;20621;-70
2021/12/22 07:15:16;;;;;;;3.28;2.70;;;3.50;99.90;;;;;;5042505;28;20217;-70
2021/12/22 07:17:46;;;;;;;3.30;2.53;;;3.40;99.90;;;;;;5033815;28;20216;-69
2021/12/22 07:20:15;;;;;;;2.97;2.58;;;3.40;99.90;;;;;;5033071;28;20646;-70
2021/12/22 07:22:44;;;;;;;4.50;2.40;;;3.40;99.90;;;;;;5033997;28;20225;-71
2021/12/22 07:25:14;;;;;;;4.05;2.78;;;3.40;99.90;;;;;;5051392;28;20246;-69
2021/12/22 07:27:42;;;;;;;3.67;2.88;;;3.40;99.90;;;;;;5053932;28;20584;-71
2021/12/22 07:30:11;;;;;;;5.53;3.13;;;3.40;99.90;;;;;;5041249;28;20706;-69
2021/12/22 07:32:40;;;;;;;4.13;2.58;;;3.40;99.90;;;;;;5033329;28;20189;-69
2021/12/22 07:35:10;;;;;;;3.40;2.60;;;3.40;99.90;;;;;;5032676;28;20442;-71
2021/12/22 07:37:51;;;;;;;2.90;2.40;;;3.40;99.90;;;;;;5048439;28;20654;-68
2021/12/22 07:40:20;;;;;;;3.55;2.15;;;3.40;99.90;;;;;;5047586;28;20278;-72
2021/12/22 07:42:48;;;;;;;2.70;2.50;;;3.40;99.90;;;;;;5052465;28;20582;-70
2021/12/22 07:45:16;;;;;;;4.38;2.55;;;3.40;99.90;;;;;;5051477;28;20216;-69
2021/12/22 07:47:44;;;;;;;4.10;2.83;;;3.40;99.90;;;;;;5052192;28;20217;-70
2021/12/22 07:50:13;;;;;;;3.05;2.40;;;3.40;99.90;;;;;;5049843;28;20293;-69
2021/12/22 07:52:41;;;;;;;6.53;3.33;;;3.40;99.90;;;;;;5043331;28;20260;-70
2021/12/22 07:55:10;;;;;;;3.03;2.72;;;3.40;99.90;;;;;;5043889;28;20717;-71
2021/12/22 07:57:39;;;;;;;4.50;2.25;;;3.40;99.90;;;;;;5050525;28;20196;-69
2021/12/22 08:00:08;;;;;;;3.03;2.10;;;3.40;99.90;;;;;;5048522;28;20283;-68
2021/12/22 08:02:43;;;;;;;4.95;3.50;;;3.40;99.90;;;;;;5048610;28;20295;-69
2021/12/22 08:05:31;;;;;;;3.33;2.42;;;3.40;99.90;;;;;;5051746;28;20236;-70
2021/12/22 08:08:00;;;;;;;3.22;2.35;;;3.40;99.90;;;;;;5050643;28;20286;-72
2021/12/22 08:10:30;;;;;;;3.30;2.53;;;3.40;99.90;;;;;;5050690;28;20247;-69
2021/12/22 08:12:59;;;;;;;3.17;2.58;;;3.30;99.90;;;;;;5050759;28;20184;-71
2021/12/22 08:15:27;;;;;;;4.32;3.08;;;3.40;99.90;;;;;;5045657;28;20258;-70
2021/12/22 08:17:55;;;;;;;3.33;2.80;;;3.30;99.90;;;;;;5051486;28;20341;-69
2021/12/22 08:20:24;;;;;;;2.85;2.20;;;3.30;99.90;;;;;;5051087;28;20228;-71
2021/12/22 08:22:53;;;;;;;5.00;3.25;;;3.30;99.90;;;;;;5050814;28;20208;-71
2021/12/22 08:25:22;;;;;;;3.00;2.70;;;3.30;99.90;;;;;;5044968;28;20219;-70
2021/12/22 08:27:51;;;;;;;2.92;2.60;;;3.30;99.90;;;;;;5050708;28;20185;-67
2021/12/22 08:30:20;;;;;;;3.53;2.60;;;3.30;99.90;;;;;;5049539;28;20247;-68
2021/12/22 08:32:48;;;;;;;3.53;2.88;;;3.30;99.90;;;;;;5050357;28;20535;-69
2021/12/22 08:35:17;;;;;;;3.63;3.25;;;3.30;99.90;;;;;;5050936;28;20649;-71
2021/12/22 08:40:31;;;;;;;3.25;2.72;;;3.30;99.90;;;;;;5048919;28;20220;-68
2021/12/22 08:43:00;;;;;;;4.50;3.20;;;3.30;99.90;;;;;;5051730;28;20200;-70
2021/12/22 08:45:28;;;;;;;2.70;2.28;;;3.30;99.90;;;;;;5054086;28;20685;-70
2021/12/22 08:47:56;;;;;;;4.70;3.55;;;3.30;99.90;;;;;;5048012;28;20542;-68
2021/12/22 08:50:26;;;;;;;3.95;3.42;;;3.30;99.90;;;;;;5037062;28;20251;-68
2021/12/22 08:52:55;;;;;;;4.53;3.95;;;3.30;99.90;;;;;;5051687;28;20189;-71
2021/12/22 08:55:23;;;;;;;7.15;4.70;;;3.30;99.90;;;;;;5050651;28;20220;-69
2021/12/22 08:57:51;;;;;;;8.50;4.13;;;3.20;99.90;;;;;;5049231;28;20611;-68
2021/12/22 09:00:21;;;;;;;4.63;3.50;;;3.20;99.90;;;;;;5049893;28;20273;-68
2021/12/22 09:02:49;;;;;;;4.07;3.58;;;3.20;99.90;;;;;;5043287;28;20212;-68
2021/12/22 09:05:19;;;;;;;4.63;3.65;;;3.20;99.90;;;;;;5050525;28;20240;-70
2021/12/22 09:07:47;;;;;;;4.97;3.75;;;3.20;99.90;;;;;;5050526;28;20188;-68
2021/12/22 09:10:16;;;;;;;5.05;3.50;;;3.20;99.90;;;;;;5050990;28;20255;-67
2021/12/22 09:12:44;;;;;;;4.22;3.20;;;3.20;99.90;;;;;;5051151;28;20192;-69
2021/12/22 09:15:12;;;;;;;3.92;3.00;;;3.20;99.90;;;;;;5035865;28;20220;-69
2021/12/22 09:17:42;;;;;;;3.55;2.92;;;3.20;99.90;;;;;;5051680;28;20574;-68
2021/12/22 09:20:11;;;;;;;5.80;3.65;;;3.20;99.90;;;;;;5050440;28;20299;-67
2021/12/22 09:22:39;;;;;;;5.32;3.40;;;3.30;99.90;;;;;;5050486;28;20709;-68
2021/12/22 09:25:08;;;;;;;3.75;3.22;;;3.30;99.90;;;;;;5050299;28;20219;-69
2021/12/22 09:27:37;;;;;;;4.40;4.00;;;3.30;99.90;;;;;;5049918;28;20239;-68
2021/12/22 09:30:06;;;;;;;7.45;4.53;;;3.30;99.90;;;;;;5048259;28;20227;-68
2021/12/22 09:32:34;;;;;;;4.43;3.10;;;3.30;99.90;;;;;;5050355;28;20215;-68
2021/12/22 09:35:05;;;;;;;3.47;2.70;;;3.30;99.90;;;;;;5050921;28;20583;-69
2021/12/22 09:37:33;;;;;;;4.50;3.20;;;3.30;99.90;;;;;;5049982;28;20185;-67
2021/12/22 09:40:02;;;;;;;3.75;3.15;;;3.30;99.90;;;;;;5049705;28;20269;-67
2021/12/22 09:42:31;;;;;;;6.00;4.25;;;3.30;99.90;;;;;;5050173;28;20212;-68
2021/12/22 09:45:01;;;;;;;3.75;3.40;;;3.30;99.90;;;;;;5048951;28;20751;-67
2021/12/22 09:47:48;;;;;;;4.13;2.85;;;3.30;99.90;;;;;;5049658;28;20200;-66
2021/12/22 09:50:37;;;;;;;5.80;4.15;;;3.30;99.90;;;;;;5041805;28;20242;-67
2021/12/22 09:53:05;;;;;;;3.55;3.25;;;3.30;99.90;;;;;;5052262;28;20219;-69
2021/12/22 09:55:34;;;;;;;7.95;4.40;;;3.30;99.90;;;;;;5053415;28;20320;-68
2021/12/22 09:58:03;;;;;;;4.72;3.38;;;3.30;99.90;;;;;;5037208;28;20270;-67
2021/12/22 10:00:34;;;;;;;4.88;3.20;;;3.30;99.90;;;;;;5053735;28;20243;-67
2021/12/22 10:03:03;;;;;;;4.25;3.05;;;3.30;99.90;;;;;;5055252;28;20674;-67
2021/12/22 10:05:33;;;;;;;3.70;3.22;;;3.30;99.90;;;;;;5052947;28;20228;-67
2021/12/22 10:08:10;;;;;;;3.92;3.15;;;3.30;99.90;;;;;;5053888;28;20255;-69
2021/12/22 10:10:40;;;;;;;4.90;3.95;;;3.30;99.90;;;;;;5054448;28;20255;-67
2021/12/22 10:13:11;;;;;;;4.75;3.53;;;3.30;99.90;;;;;;5054113;28;20263;-67
2021/12/22 10:15:39;;;;;;;3.42;3.13;;;3.30;99.90;;;;;;5047800;28;20227;-67
2021/12/22 10:18:09;;;;;;;4.15;3.10;;;3.30;99.90;;;;;;5052705;28;20200;-67
2021/12/22 10:20:39;;;;;;;4.25;2.85;;;3.30;99.90;;;;;;5053682;28;20228;-67
2021/12/22 10:23:23;;;;;;;7.88;4.32;;;3.30;99.90;;;;;;5053937;28;20231;-67
2021/12/22 10:25:53;;;;;;;3.83;2.90;;;3.20;99.90;;;;;;5044582;28;20224;-67
2021/12/22 10:28:22;;;;;;;3.33;3.03;;;3.20;99.90;;;;;;5054285;28;20184;-67
2021/12/22 10:30:55;;;;;;;3.90;3.35;;;3.20;99.90;;;;;;5046554;28;20235;-66
2021/12/22 10:33:27;;;;;;;5.35;4.03;;;3.20;99.90;;;;;;5049710;28;21754;-67
2021/12/22 10:36:01;;;;;;;3.97;3.60;;;3.20;99.90;;;;;;5044861;28;20284;-68
2021/12/22 10:38:32;;;;;;;3.65;3.22;;;3.20;99.90;;;;;;5052892;28;20562;-67
2021/12/22 10:41:04;;;;;;;3.95;3.10;;;3.20;99.90;;;;;;5055027;28;20219;-67
2021/12/22 10:43:34;;;;;;;4.40;3.20;;;3.20;99.90;;;;;;5054148;28;20215;-66
2021/12/22 10:46:05;;;;;;;4.28;3.88;;;3.20;99.90;;;;;;5043999;28;20211;-69
2021/12/22 10:51:28;;;;;;;4.85;3.17;;;3.20;99.90;;;;;;5047256;28;20204;-67
2021/12/22 10:53:57;;;;;;;4.07;3.65;;;3.20;99.90;;;;;;5052219;28;20618;-67
2021/12/22 10:56:29;;;;;;;4.90;2.90;;;3.20;99.90;;;;;;5053985;28;20192;-68
2021/12/22 10:59:03;;;;;;;4.28;3.55;;;3.20;99.90;;;;;;5052585;28;20680;-67
2021/12/22 11:01:34;;;;;;;4.20;3.80;;;3.20;99.90;;;;;;5049499;28;20216;-67
2021/12/22 11:04:06;;;;;;;5.90;3.70;;;3.20;99.90;;;;;;5052257;28;20216;-66
2021/12/22 11:06:39;;;;;;;3.35;2.75;;;3.20;99.90;;;;;;5041082;28;20663;-67
2021/12/22 11:09:13;;;;;;;4.07;3.33;;;3.20;99.90;;;;;;5044506;28;20247;-67
2021/12/22 11:11:44;;;;;;;3.72;3.15;;;3.20;99.90;;;;;;5050625;28;20213;-67
2021/12/22 11:14:19;;;;;;;8.90;3.95;;;3.20;99.90;;;;;;5050634;28;20689;-66
2021/12/22 11:17:02;;;;;;;3.83;2.65;;;3.20;99.90;;;;;;5053139;28;20196;-68
2021/12/22 11:19:32;;;;;;;4.10;3.38;;;3.20;99.90;;;;;;5053105;28;20209;-67
2021/12/22 11:22:11;;;;;;;3.33;3.00;;;3.20;99.90;;;;;;5052007;28;20208;-67
2021/12/22 11:24:42;;;;;;;14.65;11.02;;;3.20;99.90;;;;;;5049224;28;20232;-74
2021/12/22 11:27:18;;;;;;;9.32;8.43;;;3.20;99.90;;;;;;5053346;28;20227;-73
2021/12/22 11:29:51;;;;;;;8.95;8.15;;;3.20;99.90;;;;;;5046188;28;20217;-74
2021/12/22 11:32:21;;;;;;;8.57;7.45;;;3.20;99.90;;;;;;5033464;28;20217;-73
2021/12/22 11:34:51;;;;;;;7.70;7.00;;;3.20;99.90;;;;;;5032991;28;20251;-73
2021/12/22 11:37:21;;;;;;;7.50;6.72;;;3.20;99.90;;;;;;5033254;28;20243;-73
2021/12/22 11:39:51;;;;;;;8.32;7.50;;;3.10;99.90;;;;;;5044801;28;20224;-72
2021/12/22 11:42:22;;;;;;;7.80;7.05;;;3.20;99.90;;;;;;5052273;28;20262;-73
2021/12/22 11:44:55;;;;;;;7.72;7.00;;;3.20;99.90;;;;;;5052330;28;20220;-74
2021/12/22 11:47:23;;;;;;;8.52;6.28;;;3.10;99.90;;;;;;5051921;28;20243;-73
2021/12/22 11:49:54;;;;;;;8.68;7.40;;;3.20;99.90;;;;;;5052677;28;20575;-72
2021/12/22 11:52:37;;;;;;;7.38;6.68;;;3.20;99.90;;;;;;5051622;28;20593;-73
2021/12/22 11:55:12;;;;;;;7.38;6.55;;;3.10;99.90;;;;;;5042488;28;20272;-74
2021/12/22 11:57:40;;;;;;;7.93;6.68;;;3.20;99.90;;;;;;5031670;28;20250;-73
2021/12/22 12:00:23;;;;;;;8.80;7.88;;;3.10;99.90;;;;;;5042510;28;20321;-74
2021/12/22 12:02:52;;;;;;;8.30;6.95;;;3.10;99.90;;;;;;5052620;28;20192;-72
2021/12/22 12:05:22;;;;;;;6.60;6.00;;;3.10;99.90;;;;;;5052093;28;20228;-73
2021/12/22 12:07:55;;;;;;;6.90;6.00;;;3.10;99.90;;;;;;5050635;28;20219;-72
2021/12/22 12:10:40;;;;;;;6.80;6.20;;;3.10;99.90;;;;;;5032048;28;20233;-72
2021/12/22 12:13:21;;;;;;;8.05;6.80;;;3.10;99.90;;;;;;5032455;28;20667;-73
2021/12/22 12:22:09;;;;;;;6.35;5.78;;;3.10;99.90;;;;;;5051192;28;20238;-73
2021/12/22 12:24:59;;;;;;;7.10;6.40;;;3.10;99.90;;;;;;5031390;28;20229;-74
2021/12/22 12:27:34;;;;;;;8.05;6.82;;;3.10;99.90;;;;;;5031321;28;20243;-73
2021/12/22 12:30:06;;;;;;;8.10;7.22;;;3.20;99.90;;;;;;5040767;28;20226;-74
2021/12/22 12:32:57;;;;;;;7.85;6.95;;;3.20;99.90;;;;;;5052331;28;20200;-72
2021/12/22 12:35:28;;;;;;;7.57;6.32;;;3.10;99.90;;;;;;5050243;28;20354;-73
2021/12/22 12:38:12;;;;;;;10.65;7.05;;;3.20;99.90;;;;;;5052122;28;20212;-73
2021/12/22 12:41:14;;;;;;;7.85;6.30;;;3.10;99.90;;;;;;5031350;28;20233;-74
2021/12/22 12:44:00;;;;;;;6.32;5.70;;;3.20;99.90;;;;;;5031687;28;20599;-72
2021/12/22 12:46:51;;;;;;;8.63;7.45;;;3.20;99.90;;;;;;5032223;28;20567;-72
2021/12/22 12:49:41;;;;;;;7.97;6.55;;;3.20;99.90;;;;;;5030564;28;20303;-73
2021/12/22 12:52:21;;;;;;;7.30;6.57;;;3.10;99.90;;;;;;5032035;28;20626;-73
2021/12/22 12:54:51;;;;;;;7.18;6.30;;;3.20;99.90;;;;;;5038656;28;20641;-73
2021/12/22 12:57:38;;;;;;;7.20;6.50;;;3.20;99.90;;;;;;5051836;28;20238;-73
2021/12/22 13:00:24;;;;;;;6.18;5.53;;;3.20;99.90;;;;;;5050776;28;20747;-73
2021/12/22 13:03:09;;;;;;;6.25;5.43;;;3.20;99.90;;;;;;5028102;28;20312;-73
2021/12/22 13:05:38;;;;;;;6.85;6.20;;;3.20;99.90;;;;;;5051517;28;20273;-73
2021/12/22 13:08:08;;;;;;;8.32;6.80;;;3.20;99.90;;;;;;5050905;28;20192;-73
2021/12/22 13:10:38;;;;;;;6.38;5.78;;;3.20;99.90;;;;;;5031714;28;20212;-73
2021/12/22 13:13:19;;;;;;;6.45;5.32;;;3.20;99.90;;;;;;5029892;28;20571;-72
2021/12/22 13:15:47;;;;;;;5.97;5.40;;;3.10;99.90;;;;;;5046892;28;20238;-74
2021/12/22 13:18:30;;;;;;;8.25;5.43;;;3.20;99.90;;;;;;5051137;28;20219;-73
2021/12/22 13:21:06;;;;;;;7.20;6.50;;;3.20;99.90;;;;;;5049593;28;20216;-73
2021/12/22 13:23:35;;;;;;;7.32;5.90;;;3.20;99.90;;;;;;5050327;28;20228;-72
2021/12/22 13:26:04;;;;;;;6.40;5.72;;;3.20;99.90;;;;;;5051550;28;20226;-72
2021/12/22 13:28:36;;;;;;;7.10;5.70;;;3.10;99.90;;;;;;5053083;28;20291;-72
2021/12/22 13:31:06;;;;;;;6.97;5.60;;;3.20;99.90;;;;;;5055130;28;20213;-73